Time;durP1;ratioP1;P1;durP2;ratioP2;P2;SDS_P1;SDS_P2;PMS_P1;PMS_P2;Temp;Humidity;BMP_temperature;BMP_pressure;BME280_temperature;BME280_humidity;BME280_pressure;Samples;Min_cycle;Max_cycle;Signal;HPM_P1;HPM_P2
2023/09/23 00:00:47;;;;;;;3.73;2.53;;;;;;;;;;5074914;28;20241;-73
2023/09/23 00:03:14;;;;;;;3.10;2.10;;;;;;;;;;5041493;28;20186;-73
2023/09/23 00:09:36;;;;;;;4.17;2.33;;;;;;;;;;5074981;28;20719;-73
2023/09/23 00:12:03;;;;;;;3.10;2.20;;;;;;;;;;5040741;28;20703;-73
2023/09/23 00:14:30;;;;;;;2.10;1.90;;;;;;;;;;5075578;28;20254;-73
2023/09/23 00:16:56;;;;;;;4.47;1.90;;;;;;;;;;5057576;28;20197;-73
2023/09/23 00:23:23;;;;;;;3.43;2.10;;;;;;;;;;5074496;28;20200;-73
2023/09/23 00:25:50;;;;;;;4.20;2.40;;;;;;;;;;5056707;28;20633;-74
2023/09/23 00:28:34;;;;;;;3.73;2.33;;;;;;;;;;5074524;28;20178;-74
2023/09/23 00:35:00;;;;;;;3.17;2.03;;;;;;;;;;5074390;28;20177;-74
2023/09/23 00:41:28;;;;;;;4.03;2.53;;;;;;;;;;5074271;28;20177;-74
2023/09/23 00:47:57;;;;;;;4.80;2.80;;;;;;;;;;5074217;28;20153;-74
2023/09/23 00:50:24;;;;;;;3.47;2.60;;;;;;;;;;5040510;28;20637;-73
2023/09/23 00:52:54;;;;;;;5.60;3.03;;;;;;;;;;5074353;28;20521;-74
2023/09/23 00:55:22;;;;;;;3.60;3.17;;;;;;;;;;5057091;28;20273;-74
2023/09/23 00:57:52;;;;;;;5.83;3.33;;;;;;;;;;5056614;28;20186;-73
2023/09/23 01:00:27;;;;;;;3.83;3.13;;;;;;;;;;5057080;28;20633;-74
2023/09/23 01:06:55;;;;;;;5.23;3.40;;;;;;;;;;5073931;28;20240;-74
2023/09/23 01:09:23;;;;;;;3.37;2.80;;;;;;;;;;5023425;28;20224;-74
2023/09/23 01:44:41;;;;;;;3.13;2.63;;;;;;;;;;4889739;28;20225;-74
2023/09/23 01:51:10;;;;;;;4.77;3.20;;;;;;;;;;5073506;28;20152;-73
2023/09/23 01:53:36;;;;;;;6.47;3.17;;;;;;;;;;5073296;28;20178;-73
2023/09/23 01:56:03;;;;;;;3.53;2.70;;;;;;;;;;5055561;28;20189;-73
2023/09/23 01:58:30;;;;;;;4.87;2.80;;;;;;;;;;5023653;28;20208;-74
2023/09/23 02:01:14;;;;;;;6.37;3.30;;;;;;;;;;5058206;28;20200;-73
2023/09/23 02:03:41;;;;;;;3.77;2.97;;;;;;;;;;5039246;28;20187;-73
2023/09/23 02:06:34;;;;;;;4.17;2.97;;;;;;;;;;5058027;28;20161;-74
2023/09/23 02:09:00;;;;;;;4.57;2.47;;;;;;;;;;5055421;28;20186;-73
2023/09/23 02:11:45;;;;;;;3.80;3.07;;;;;;;;;;5055782;28;20609;-73
2023/09/23 02:14:12;;;;;;;4.50;2.70;;;;;;;;;;5039299;28;20178;-73
2023/09/23 02:16:57;;;;;;;3.70;2.80;;;;;;;;;;5055964;28;20174;-73
2023/09/23 02:19:24;;;;;;;4.23;3.00;;;;;;;;;;5055175;28;20675;-74
2023/09/23 02:21:51;;;;;;;4.17;2.90;;;;;;;;;;5039034;28;20256;-74
2023/09/23 02:28:18;;;;;;;3.40;2.90;;;;;;;;;;5073030;28;20295;-73
2023/09/23 02:30:45;;;;;;;5.43;3.23;;;;;;;;;;5055747;28;20185;-74
2023/09/23 02:33:12;;;;;;;5.63;3.27;;;;;;;;;;5055491;28;20213;-73
2023/09/23 02:35:39;;;;;;;5.23;3.10;;;;;;;;;;5073861;28;20625;-73
2023/09/23 02:38:07;;;;;;;8.10;3.60;;;;;;;;;;5055651;28;20182;-73
2023/09/23 02:44:29;;;;;;;7.60;4.03;;;;;;;;;;5072809;28;20236;-73
2023/09/23 02:51:13;;;;;;;4.10;3.70;;;;;;;;;;5076464;28;20188;-73
2023/09/23 02:57:36;;;;;;;4.70;3.73;;;;;;;;;;5076293;28;20617;-73
2023/09/23 03:04:16;;;;;;;5.53;3.60;;;;;;;;;;5076282;28;20177;-74
2023/09/23 03:06:44;;;;;;;5.30;4.10;;;;;;;;;;5058705;28;20174;-73
2023/09/23 03:09:10;;;;;;;4.93;4.23;;;;;;;;;;5058648;28;20183;-73
2023/09/23 03:11:47;;;;;;;5.63;4.00;;;;;;;;;;5041946;28;20276;-73
2023/09/23 03:18:33;;;;;;;6.40;3.73;;;;;;;;;;5075818;28;20168;-73
2023/09/23 03:21:08;;;;;;;5.33;4.50;;;;;;;;;;5043027;28;20214;-73
2023/09/23 03:27:39;;;;;;;4.40;3.80;;;;;;;;;;5075730;28;20173;-73
2023/09/23 03:30:11;;;;;;;5.90;4.43;;;;;;;;;;5058569;28;20257;-73
2023/09/23 03:32:39;;;;;;;5.53;4.30;;;;;;;;;;5058229;28;20566;-73
2023/09/23 03:39:06;;;;;;;4.00;3.60;;;;;;;;;;5075660;28;20215;-73
2023/09/23 03:41:33;;;;;;;7.23;4.20;;;;;;;;;;5041299;28;20189;-73
2023/09/23 03:52:13;;;;;;;7.17;4.87;;;;;;;;;;5075378;28;20650;-73
2023/09/23 03:54:40;;;;;;;6.10;4.20;;;;;;;;;;5075766;28;20186;-73
2023/09/23 03:57:07;;;;;;;7.23;5.20;;;;;;;;;;5074411;28;20221;-74
2023/09/23 04:03:35;;;;;;;6.63;4.90;;;;;;;;;;5075381;28;20180;-73
2023/09/23 04:10:02;;;;;;;4.63;4.23;;;;;;;;;;5074966;28;20153;-73
2023/09/23 04:12:29;;;;;;;5.97;4.00;;;;;;;;;;5040917;28;20621;-73
2023/09/23 04:15:13;;;;;;;4.83;3.90;;;;;;;;;;5074871;28;20233;-73
2023/09/23 04:21:39;;;;;;;4.47;3.57;;;;;;;;;;5074799;28;20165;-73
2023/09/23 04:24:06;;;;;;;3.70;3.23;;;;;;;;;;5056929;28;20232;-73
2023/09/23 04:30:57;;;;;;;4.43;3.60;;;;;;;;;;5074630;28;20193;-73
2023/09/23 04:37:17;;;;;;;5.13;3.80;;;;;;;;;;5074715;28;20169;-73
2023/09/23 04:40:01;;;;;;;5.57;4.10;;;;;;;;;;5075269;28;20206;-73
2023/09/23 04:42:29;;;;;;;4.10;3.70;;;;;;;;;;5040691;28;20189;-75
2023/09/23 04:52:56;;;;;;;5.30;4.27;;;;;;;;;;5078258;28;20153;-80
2023/09/23 04:59:25;;;;;;;4.53;3.80;;;;;;;;;;5080565;28;20195;-82
2023/09/23 05:05:52;;;;;;;4.87;4.33;;;;;;;;;;5079312;28;20639;-84
2023/09/23 05:08:20;;;;;;;6.00;4.77;;;;;;;;;;5041599;28;20190;-76
2023/09/23 05:10:47;;;;;;;4.90;3.97;;;;;;;;;;5078664;28;20262;-79
2023/09/23 05:13:17;;;;;;;7.43;4.37;;;;;;;;;;5043940;28;20186;-82
2023/09/23 05:19:46;;;;;;;4.97;3.90;;;;;;;;;;5059033;28;20271;-79
2023/09/23 05:26:15;;;;;;;4.13;3.73;;;;;;;;;;5056625;28;20150;-80
2023/09/23 05:28:43;;;;;;;5.07;3.80;;;;;;;;;;5039509;28;20175;-76
2023/09/23 05:31:14;;;;;;;5.00;4.50;;;;;;;;;;5058286;28;20248;-78
2023/09/23 05:33:41;;;;;;;4.80;4.30;;;;;;;;;;5058006;28;20182;-77
2023/09/23 05:36:10;;;;;;;5.17;4.67;;;;;;;;;;5039302;28;20214;-84
2023/09/23 05:38:37;;;;;;;6.00;4.70;;;;;;;;;;5023540;28;20190;-75
2023/09/23 05:45:08;;;;;;;4.80;3.90;;;;;;;;;;5054861;28;20154;-79
2023/09/23 05:47:41;;;;;;;6.43;4.60;;;;;;;;;;5053970;28;20620;-78
2023/09/23 05:54:03;;;;;;;6.67;5.97;;;;;;;;;;5053808;28;20498;-76
2023/09/23 06:00:25;;;;;;;7.13;6.43;;;;;;;;;;5053750;28;20194;-76
2023/09/23 06:06:54;;;;;;;8.13;6.87;;;;;;;;;;5054481;28;20154;-75
2023/09/23 06:13:21;;;;;;;9.40;7.23;;;;;;;;;;5054159;28;20146;-79
2023/09/23 06:15:49;;;;;;;12.27;7.53;;;;;;;;;;5036461;28;20201;-75
2023/09/23 06:22:15;;;;;;;7.23;6.40;;;;;;;;;;5053865;28;20544;-79
2023/09/23 06:24:44;;;;;;;7.27;6.40;;;;;;;;;;5056145;28;20286;-75
2023/09/23 06:31:16;;;;;;;8.13;6.90;;;;;;;;;;5077412;28;20152;-79
2023/09/23 06:33:45;;;;;;;6.90;6.20;;;;;;;;;;5078111;28;20179;-76
2023/09/23 06:36:15;;;;;;;6.73;5.90;;;;;;;;;;5060578;28;20198;-79
2023/09/23 06:42:39;;;;;;;8.20;6.17;;;;;;;;;;5078547;28;20685;-83
2023/09/23 06:53:07;;;;;;;6.87;5.93;;;;;;;;;;5077316;28;20539;-78
2023/09/23 06:55:35;;;;;;;7.57;6.23;;;;;;;;;;5043241;28;20583;-79
2023/09/23 07:02:02;;;;;;;7.90;6.47;;;;;;;;;;5076647;28;20618;-77
2023/09/23 07:08:28;;;;;;;6.07;5.40;;;;;;;;;;5077086;28;20256;-78
2023/09/23 07:10:56;;;;;;;7.30;5.17;;;;;;;;;;5042574;28;20228;-77
2023/09/23 07:17:41;;;;;;;5.57;4.93;;;;;;;;;;5076876;28;20207;-78
2023/09/23 07:20:08;;;;;;;5.23;4.73;;;;;;;;;;5058186;28;20711;-79
2023/09/23 07:26:35;;;;;;;5.13;3.83;;;;;;;;;;5076175;28;20157;-77
2023/09/23 07:29:02;;;;;;;5.60;4.47;;;;;;;;;;5058313;28;20263;-78
2023/09/23 07:31:30;;;;;;;4.17;3.77;;;;;;;;;;5076558;28;20236;-78
2023/09/23 07:33:57;;;;;;;4.50;4.07;;;;;;;;;;5042175;28;20652;-77
2023/09/23 07:36:24;;;;;;;5.87;3.80;;;;;;;;;;5041646;28;20190;-78
2023/09/23 07:38:51;;;;;;;3.97;3.50;;;;;;;;;;5075514;28;20202;-79
2023/09/23 07:41:19;;;;;;;4.53;3.63;;;;;;;;;;5058482;28;20572;-79
2023/09/23 07:43:48;;;;;;;4.40;3.20;;;;;;;;;;5059017;28;20244;-79
2023/09/23 07:46:15;;;;;;;3.83;3.37;;;;;;;;;;5074752;28;20189;-79
2023/09/23 07:48:43;;;;;;;3.00;2.70;;;;;;;;;;5059135;28;20222;-79
2023/09/23 07:51:12;;;;;;;4.10;2.90;;;;;;;;;;5074776;28;20209;-79
2023/09/23 07:53:39;;;;;;;3.20;2.83;;;;;;;;;;5075867;28;20178;-79
2023/09/23 07:56:06;;;;;;;3.47;2.87;;;;;;;;;;5076407;28;20198;-74
2023/09/23 07:58:33;;;;;;;2.80;2.60;;;;;;;;;;5058266;28;20190;-74
2023/09/23 08:01:00;;;;;;;4.70;2.67;;;;;;;;;;5057859;28;20237;-74
2023/09/23 08:03:28;;;;;;;3.10;2.80;;;;;;;;;;5075468;28;20202;-74
2023/09/23 08:05:55;;;;;;;3.43;2.50;;;;;;;;;;5058251;28;20192;-75
2023/09/23 08:08:23;;;;;;;2.63;2.37;;;;;;;;;;5058199;28;20178;-74
2023/09/23 08:10:53;;;;;;;3.43;2.20;;;;;;;;;;5076548;28;20182;-75
2023/09/23 08:13:20;;;;;;;3.87;2.77;;;;;;;;;;5058223;28;20190;-74
2023/09/23 08:15:49;;;;;;;3.37;2.73;;;;;;;;;;5057732;28;20194;-74
2023/09/23 08:18:16;;;;;;;3.23;2.70;;;;;;;;;;5058515;28;20178;-77
2023/09/23 08:20:44;;;;;;;4.77;3.20;;;;;;;;;;5057907;28;20301;-76
2023/09/23 08:23:11;;;;;;;3.97;2.93;;;;;;;;;;5075454;28;20182;-76
2023/09/23 08:25:38;;;;;;;4.27;3.20;;;;;;;;;;5057544;28;20225;-77
2023/09/23 08:28:05;;;;;;;4.17;2.63;;;;;;;;;;5057985;28;20194;-76
2023/09/23 08:30:32;;;;;;;3.67;2.50;;;;;;;;;;5074188;28;20182;-76
2023/09/23 08:32:59;;;;;;;3.17;2.43;;;;;;;;;;5058375;28;20280;-76
2023/09/23 08:35:28;;;;;;;4.40;2.93;;;;;;;;;;5057306;28;20186;-76
2023/09/23 08:38:15;;;;;;;3.80;3.40;;;;;;;;;;5060155;28;20221;-77
2023/09/23 08:40:44;;;;;;;4.40;4.00;;;;;;;;;;5059040;28;20538;-76
2023/09/23 08:43:11;;;;;;;3.90;3.50;;;;;;;;;;5041440;28;20186;-76
2023/09/23 08:45:46;;;;;;;6.57;4.53;;;;;;;;;;5056824;28;20182;-77
2023/09/23 08:48:31;;;;;;;5.47;3.93;;;;;;;;;;5059379;28;20259;-77
2023/09/23 08:51:02;;;;;;;6.27;4.10;;;;;;;;;;5058690;28;20175;-77
2023/09/23 08:53:33;;;;;;;4.73;4.17;;;;;;;;;;5075197;28;20243;-76
2023/09/23 08:56:00;;;;;;;6.80;4.27;;;;;;;;;;5074232;28;20194;-72
2023/09/23 08:58:27;;;;;;;6.80;5.53;;;;;;;;;;5073807;28;20430;-72
2023/09/23 09:00:55;;;;;;;6.67;6.07;;;;;;;;;;5074530;28;20198;-72
2023/09/23 09:03:23;;;;;;;6.87;6.17;;;;;;;;;;5075412;28;20572;-74
2023/09/23 09:05:53;;;;;;;7.93;5.93;;;;;;;;;;5057035;28;20217;-73
2023/09/23 09:08:26;;;;;;;7.17;6.47;;;;;;;;;;5074169;28;20518;-74
2023/09/23 09:10:57;;;;;;;6.20;5.60;;;;;;;;;;5075347;28;20498;-73
2023/09/23 09:13:24;;;;;;;7.60;6.10;;;;;;;;;;5073505;28;20166;-72
2023/09/23 09:15:52;;;;;;;6.77;5.90;;;;;;;;;;5073475;28;20186;-71
2023/09/23 09:18:21;;;;;;;6.60;5.93;;;;;;;;;;5057498;28;20537;-71
2023/09/23 09:20:51;;;;;;;8.53;5.90;;;;;;;;;;5056707;28;20217;-71
2023/09/23 09:23:19;;;;;;;5.87;5.20;;;;;;;;;;5073953;28;20190;-71
2023/09/23 09:25:47;;;;;;;7.23;5.87;;;;;;;;;;5073544;28;20185;-71
2023/09/23 09:28:18;;;;;;;6.67;5.60;;;;;;;;;;5059027;28;20670;-77
2023/09/23 09:30:47;;;;;;;5.83;5.00;;;;;;;;;;5059415;28;20260;-79
2023/09/23 09:33:15;;;;;;;6.23;4.87;;;;;;;;;;5076178;28;20186;-78
2023/09/23 09:35:43;;;;;;;5.17;4.60;;;;;;;;;;5058548;28;20549;-80
2023/09/23 09:38:10;;;;;;;7.10;4.70;;;;;;;;;;5059142;28;20196;-79
2023/09/23 09:40:45;;;;;;;5.93;4.47;;;;;;;;;;5076270;28;20212;-81
2023/09/23 09:43:12;;;;;;;5.43;4.30;;;;;;;;;;5059863;28;20609;-79
2023/09/23 09:45:57;;;;;;;5.10;3.90;;;;;;;;;;5077632;28;20165;-79
2023/09/23 09:48:28;;;;;;;4.50;4.10;;;;;;;;;;5059747;28;20217;-79
2023/09/23 09:50:56;;;;;;;4.90;3.60;;;;;;;;;;5043453;28;20209;-81
2023/09/23 09:53:25;;;;;;;4.37;3.80;;;;;;;;;;5059476;28;20193;-81
2023/09/23 09:55:56;;;;;;;4.67;3.87;;;;;;;;;;5075547;28;20267;-79
2023/09/23 09:58:26;;;;;;;5.30;4.40;;;;;;;;;;5060273;28;20545;-82
2023/09/23 10:00:55;;;;;;;5.97;3.63;;;;;;;;;;5065323;28;20202;-79
2023/09/23 10:03:23;;;;;;;4.43;3.80;;;;;;;;;;5061889;28;20690;-79
2023/09/23 10:05:53;;;;;;;4.40;4.00;;;;;;;;;;5082727;28;20288;-79
2023/09/23 10:08:24;;;;;;;4.27;3.87;;;;;;;;;;5081800;28;20175;-79
2023/09/23 10:11:04;;;;;;;4.63;3.80;;;;;;;;;;5065134;28;20576;-82
2023/09/23 10:17:32;;;;;;;5.97;4.30;;;;;;;;;;5079031;28;20157;-77
2023/09/23 10:20:00;;;;;;;6.00;4.73;;;;;;;;;;5061209;28;20274;-76
2023/09/23 10:22:30;;;;;;;5.93;4.30;;;;;;;;;;5060810;28;20284;-74
2023/09/23 10:25:01;;;;;;;5.10;3.90;;;;;;;;;;5078320;28;20663;-73
2023/09/23 10:31:26;;;;;;;4.13;3.30;;;;;;;;;;5077788;28;20636;-74
2023/09/23 10:33:54;;;;;;;4.33;3.30;;;;;;;;;;5076497;28;20276;-73
2023/09/23 10:36:24;;;;;;;4.23;3.37;;;;;;;;;;5077469;28;20190;-73
2023/09/23 10:38:55;;;;;;;4.33;3.30;;;;;;;;;;5043861;28;20182;-73
2023/09/23 10:41:32;;;;;;;4.07;3.40;;;;;;;;;;5077381;28;20217;-72
2023/09/23 10:44:02;;;;;;;5.93;3.63;;;;;;;;;;5043908;28;20316;-73
2023/09/23 10:46:31;;;;;;;4.47;2.97;;;;;;;;;;5076594;28;20591;-73
2023/09/23 10:48:59;;;;;;;4.67;3.33;;;;;;;;;;5042751;28;20257;-73
2023/09/23 10:55:27;;;;;;;4.43;3.03;;;;;;;;;;5072454;28;20180;-72
2023/09/23 10:58:16;;;;;;;4.77;3.30;;;;;;;;;;5061437;28;20183;-82
2023/09/23 11:00:43;;;;;;;7.60;3.77;;;;;;;;;;5057333;28;20246;-76
2023/09/23 11:03:10;;;;;;;3.83;3.50;;;;;;;;;;5056151;28;20241;-71
2023/09/23 11:09:38;;;;;;;5.63;3.23;;;;;;;;;;5056044;28;20576;-71
2023/09/23 11:12:12;;;;;;;4.83;3.40;;;;;;;;;;5057830;28;20189;-71
2023/09/23 11:14:45;;;;;;;5.23;3.27;;;;;;;;;;5039320;28;20177;-71
2023/09/23 11:21:11;;;;;;;4.53;3.50;;;;;;;;;;5049224;28;20542;-71
2023/09/23 11:23:45;;;;;;;6.73;3.70;;;;;;;;;;5039838;28;20254;-71
2023/09/23 11:26:31;;;;;;;3.80;3.30;;;;;;;;;;5041464;28;20167;-71
2023/09/23 11:28:59;;;;;;;4.40;3.90;;;;;;;;;;5056570;28;20182;-71
2023/09/23 11:39:32;;;;;;;5.67;3.70;;;;;;;;;;5076244;28;20177;-71
2023/09/23 11:42:01;;;;;;;5.60;4.03;;;;;;;;;;5054814;28;20248;-71
2023/09/23 11:44:34;;;;;;;4.37;3.97;;;;;;;;;;5040025;28;20163;-72
2023/09/23 11:47:01;;;;;;;5.23;4.70;;;;;;;;;;5055611;28;20198;-72
2023/09/23 11:49:29;;;;;;;6.63;4.10;;;;;;;;;;5038924;28;20550;-70
2023/09/23 11:51:59;;;;;;;6.27;4.50;;;;;;;;;;5038262;28;20214;-71
2023/09/23 11:54:32;;;;;;;5.40;4.50;;;;;;;;;;5054779;28;20213;-71
2023/09/23 11:57:03;;;;;;;5.67;4.53;;;;;;;;;;5054414;28;20202;-71
2023/09/23 11:59:34;;;;;;;6.23;4.40;;;;;;;;;;5039633;28;20503;-71
2023/09/23 12:02:21;;;;;;;4.67;4.20;;;;;;;;;;5041099;28;20518;-71
2023/09/23 12:04:50;;;;;;;4.77;3.73;;;;;;;;;;5039860;28;20190;-71
2023/09/23 12:07:19;;;;;;;5.33;3.90;;;;;;;;;;5058419;28;20190;-71
2023/09/23 12:09:48;;;;;;;4.70;4.00;;;;;;;;;;5057777;28;20194;-71
2023/09/23 12:12:16;;;;;;;4.93;4.27;;;;;;;;;;5057542;28;20190;-71
2023/09/23 12:15:01;;;;;;;5.57;4.07;;;;;;;;;;5057939;28;20170;-71
2023/09/23 12:17:28;;;;;;;4.73;3.90;;;;;;;;;;5075118;28;20179;-72
2023/09/23 12:24:06;;;;;;;4.60;3.73;;;;;;;;;;5075422;28;20574;-71
2023/09/23 12:26:35;;;;;;;4.50;3.83;;;;;;;;;;5073873;28;20313;-72
2023/09/23 12:29:02;;;;;;;4.97;3.80;;;;;;;;;;5075664;28;20190;-72
2023/09/23 12:35:23;;;;;;;4.90;3.80;;;;;;;;;;5049767;28;20718;-72
2023/09/23 12:37:56;;;;;;;4.40;3.50;;;;;;;;;;5035432;28;20618;-71
2023/09/23 12:40:41;;;;;;;5.40;3.50;;;;;;;;;;5055331;28;20155;-72
2023/09/23 12:43:13;;;;;;;4.40;3.50;;;;;;;;;;5030582;28;20163;-71
2023/09/23 12:45:41;;;;;;;4.33;3.17;;;;;;;;;;5021033;28;20209;-71
2023/09/23 12:48:12;;;;;;;4.60;3.47;;;;;;;;;;5034419;28;20215;-71
2023/09/23 12:50:42;;;;;;;4.20;3.30;;;;;;;;;;5034340;28;20191;-71
2023/09/23 12:53:10;;;;;;;3.90;3.50;;;;;;;;;;5001771;28;20570;-71
2023/09/23 12:55:40;;;;;;;4.97;3.03;;;;;;;;;;5033594;28;20245;-71
2023/09/23 13:02:01;;;;;;;4.33;3.10;;;;;;;;;;5054318;28;20202;-70
2023/09/23 13:08:30;;;;;;;3.60;3.10;;;;;;;;;;5054309;28;20505;-70
2023/09/23 13:14:56;;;;;;;4.17;2.77;;;;;;;;;;5054531;28;20154;-71
2023/09/23 13:17:24;;;;;;;3.03;2.70;;;;;;;;;;5037572;28;20187;-71
2023/09/23 13:20:10;;;;;;;3.07;2.53;;;;;;;;;;5039590;28;20672;-71
2023/09/23 13:22:37;;;;;;;2.60;2.40;;;;;;;;;;5004082;28;20206;-71
2023/09/23 13:25:05;;;;;;;3.77;2.40;;;;;;;;;;5053078;28;20190;-71
2023/09/23 13:27:33;;;;;;;3.63;2.57;;;;;;;;;;5037802;28;20495;-71
2023/09/23 13:30:00;;;;;;;3.83;2.47;;;;;;;;;;5054409;28;20223;-71
2023/09/23 13:32:28;;;;;;;2.70;2.47;;;;;;;;;;5053055;28;20191;-70
2023/09/23 13:34:55;;;;;;;2.60;2.30;;;;;;;;;;5020693;28;20612;-71
2023/09/23 13:37:23;;;;;;;3.40;2.43;;;;;;;;;;5053201;28;20202;-71
2023/09/23 13:39:56;;;;;;;2.47;2.20;;;;;;;;;;5037433;28;20174;-70
2023/09/23 13:42:31;;;;;;;2.90;2.60;;;;;;;;;;5053030;28;20216;-71
2023/09/23 13:45:06;;;;;;;2.80;2.60;;;;;;;;;;5037508;28;20190;-71
2023/09/23 13:47:38;;;;;;;4.30;2.80;;;;;;;;;;5056729;28;20618;-71
2023/09/23 13:53:58;;;;;;;3.23;2.73;;;;;;;;;;5073946;28;20157;-71
2023/09/23 13:56:26;;;;;;;2.97;2.60;;;;;;;;;;5073240;28;20193;-70
2023/09/23 13:58:57;;;;;;;2.80;2.50;;;;;;;;;;5056569;28;20193;-72
2023/09/23 14:01:29;;;;;;;3.03;2.63;;;;;;;;;;5074275;28;20186;-71
2023/09/23 14:03:58;;;;;;;2.80;2.50;;;;;;;;;;5056441;28;20212;-71
2023/09/23 14:10:26;;;;;;;3.63;2.70;;;;;;;;;;5073787;28;20150;-71
2023/09/23 14:12:57;;;;;;;3.63;2.90;;;;;;;;;;5039167;28;20224;-71
2023/09/23 14:15:30;;;;;;;4.20;2.87;;;;;;;;;;5056441;28;20285;-71
2023/09/23 14:21:23;;;;;;;5.37;3.00;;;;;;;;;;5073966;28;20166;-71
2023/09/23 14:23:56;;;;;;;4.83;3.70;;;;;;;;;;5056789;28;20185;-71
2023/09/23 14:26:27;;;;;;;2.80;2.50;;;;;;;;;;5056564;28;20193;-71
2023/09/23 14:28:54;;;;;;;3.17;2.87;;;;;;;;;;5073657;28;20186;-70
2023/09/23 14:35:26;;;;;;;3.57;2.50;;;;;;;;;;5064764;28;20233;-71
2023/09/23 14:37:55;;;;;;;2.73;2.40;;;;;;;;;;5019172;28;20692;-71
2023/09/23 14:44:15;;;;;;;3.70;2.90;;;;;;;;;;5053959;28;20633;-71
2023/09/23 14:50:41;;;;;;;4.23;3.73;;;;;;;;;;5056227;28;20265;-72
2023/09/23 14:57:16;;;;;;;4.20;3.80;;;;;;;;;;5056702;28;20162;-70
2023/09/23 14:59:46;;;;;;;4.07;3.67;;;;;;;;;;5022122;28;20198;-76
2023/09/23 15:02:14;;;;;;;5.20;3.73;;;;;;;;;;5039034;28;20234;-72
2023/09/23 15:04:41;;;;;;;4.70;4.13;;;;;;;;;;5039056;28;20214;-75
2023/09/23 15:07:08;;;;;;;4.03;3.37;;;;;;;;;;5039287;28;20205;-75
2023/09/23 15:09:35;;;;;;;4.23;3.83;;;;;;;;;;5038707;28;20187;-76
2023/09/23 15:12:03;;;;;;;4.70;4.20;;;;;;;;;;5022959;28;20291;-76
2023/09/23 15:14:30;;;;;;;5.93;3.90;;;;;;;;;;5039014;28;20294;-75
2023/09/23 15:16:57;;;;;;;4.13;3.73;;;;;;;;;;5039710;28;20505;-71
2023/09/23 15:19:24;;;;;;;4.13;3.83;;;;;;;;;;5056237;28;20203;-72
2023/09/23 15:21:51;;;;;;;4.70;4.20;;;;;;;;;;5056501;28;20672;-72
2023/09/23 15:24:18;;;;;;;5.07;4.53;;;;;;;;;;5056020;28;20187;-72
2023/09/23 15:26:47;;;;;;;4.87;4.40;;;;;;;;;;5038796;28;20691;-72
2023/09/23 15:29:14;;;;;;;6.10;4.40;;;;;;;;;;5039196;28;20206;-72
2023/09/23 15:31:41;;;;;;;6.77;4.43;;;;;;;;;;5038332;28;20187;-72
2023/09/23 15:34:08;;;;;;;7.23;4.50;;;;;;;;;;5022125;28;20190;-72
2023/09/23 15:36:35;;;;;;;4.97;4.00;;;;;;;;;;5055631;28;20225;-72
2023/09/23 15:39:04;;;;;;;5.60;4.53;;;;;;;;;;5038700;28;20198;-72
2023/09/23 15:41:31;;;;;;;6.77;4.70;;;;;;;;;;5055823;28;20186;-72
2023/09/23 15:43:57;;;;;;;5.47;4.30;;;;;;;;;;5038525;28;20240;-72
2023/09/23 15:46:24;;;;;;;5.37;4.60;;;;;;;;;;5038675;28;20183;-72
2023/09/23 15:48:51;;;;;;;6.80;4.70;;;;;;;;;;5058229;28;20190;-72
2023/09/23 15:51:19;;;;;;;5.87;4.50;;;;;;;;;;5040495;28;20230;-72
2023/09/23 15:57:46;;;;;;;5.50;3.73;;;;;;;;;;5055624;28;20200;-72
2023/09/23 16:04:14;;;;;;;5.17;4.67;;;;;;;;;;5055617;28;20598;-70
2023/09/23 16:06:41;;;;;;;7.03;5.60;;;;;;;;;;5021973;28;20191;-72
2023/09/23 16:09:09;;;;;;;7.10;6.17;;;;;;;;;;5005506;28;20194;-73
2023/09/23 16:11:38;;;;;;;6.47;5.30;;;;;;;;;;5038048;28;20183;-73
2023/09/23 16:14:05;;;;;;;6.40;4.67;;;;;;;;;;5021440;28;20194;-73
2023/09/23 16:16:35;;;;;;;5.50;4.50;;;;;;;;;;5038418;28;20214;-73
2023/09/23 16:19:02;;;;;;;7.63;4.77;;;;;;;;;;5055252;28;20194;-73
2023/09/23 16:21:33;;;;;;;5.53;4.23;;;;;;;;;;5021802;28;20232;-73
2023/09/23 16:24:01;;;;;;;4.57;4.00;;;;;;;;;;5056248;28;20198;-73
2023/09/23 16:26:28;;;;;;;5.90;3.90;;;;;;;;;;5037432;28;20638;-73
2023/09/23 16:28:55;;;;;;;5.10;4.57;;;;;;;;;;5037549;28;20240;-73
2023/09/23 16:31:23;;;;;;;5.30;4.80;;;;;;;;;;5021308;28;20194;-73
2023/09/23 16:33:50;;;;;;;8.33;5.80;;;;;;;;;;5054223;28;20676;-73
2023/09/23 16:36:17;;;;;;;8.47;6.50;;;;;;;;;;5055804;28;20210;-73
2023/09/23 16:38:47;;;;;;;7.47;6.43;;;;;;;;;;5055402;28;20270;-73
2023/09/23 16:41:15;;;;;;;9.47;7.90;;;;;;;;;;5037631;28;20668;-73
2023/09/23 16:43:42;;;;;;;8.43;7.07;;;;;;;;;;5053678;28;20214;-73
2023/09/23 16:46:27;;;;;;;10.60;8.40;;;;;;;;;;5054588;28;20237;-73
2023/09/23 16:48:56;;;;;;;8.70;7.80;;;;;;;;;;5037247;28;20202;-73
2023/09/23 16:51:30;;;;;;;10.77;9.43;;;;;;;;;;5053916;28;20685;-73
2023/09/23 16:53:57;;;;;;;11.90;9.10;;;;;;;;;;5021365;28;20221;-74
2023/09/23 16:56:24;;;;;;;8.63;7.30;;;;;;;;;;5037864;28;20195;-73
2023/09/23 16:59:09;;;;;;;9.93;6.37;;;;;;;;;;5039875;28;20163;-74
2023/09/23 17:01:37;;;;;;;9.60;6.73;;;;;;;;;;5036496;28;20175;-74
2023/09/23 17:04:04;;;;;;;9.23;6.10;;;;;;;;;;5036364;28;20237;-74
2023/09/23 17:06:33;;;;;;;10.20;6.63;;;;;;;;;;5037135;28;20278;-74
2023/09/23 17:09:01;;;;;;;12.97;8.03;;;;;;;;;;5036331;28;20622;-73
2023/09/23 17:11:28;;;;;;;15.10;8.13;;;;;;;;;;5054033;28;20216;-73
2023/09/23 17:13:55;;;;;;;11.13;5.80;;;;;;;;;;5036805;28;20209;-73
2023/09/23 17:16:22;;;;;;;7.90;5.00;;;;;;;;;;5036014;28;20186;-73
2023/09/23 17:18:50;;;;;;;8.40;4.13;;;;;;;;;;5024896;28;20700;-73
2023/09/23 17:21:18;;;;;;;4.80;3.27;;;;;;;;;;5034016;28;20223;-73
2023/09/23 17:23:46;;;;;;;4.37;2.90;;;;;;;;;;5017161;28;20664;-73
2023/09/23 17:26:13;;;;;;;4.50;2.60;;;;;;;;;;4999884;28;20191;-73
2023/09/23 17:28:40;;;;;;;4.37;2.70;;;;;;;;;;5034559;28;20195;-73
2023/09/23 17:31:10;;;;;;;6.37;3.00;;;;;;;;;;5034281;28;20241;-73
2023/09/23 17:33:37;;;;;;;5.13;3.43;;;;;;;;;;5033860;28;20196;-72
2023/09/23 17:36:04;;;;;;;6.70;2.87;;;;;;;;;;5033908;28;20186;-71
2023/09/23 17:38:31;;;;;;;5.23;2.80;;;;;;;;;;5033873;28;20566;-71
2023/09/23 17:40:58;;;;;;;3.60;2.30;;;;;;;;;;5016050;28;20214;-71
2023/09/23 17:43:25;;;;;;;4.00;2.27;;;;;;;;;;5015845;28;20203;-71
2023/09/23 17:45:52;;;;;;;4.40;2.20;;;;;;;;;;5032861;28;20183;-71
2023/09/23 17:48:36;;;;;;;3.20;1.90;;;;;;;;;;5034820;28;20156;-71
2023/09/23 17:51:03;;;;;;;2.80;1.90;;;;;;;;;;5070188;28;20214;-72
2023/09/23 17:53:33;;;;;;;3.53;1.73;;;;;;;;;;5055555;28;20197;-71
2023/09/23 17:56:00;;;;;;;2.50;2.10;;;;;;;;;;5073664;28;20217;-71
2023/09/23 17:58:27;;;;;;;3.97;2.10;;;;;;;;;;5055455;28;20231;-71
2023/09/23 18:00:53;;;;;;;4.10;2.40;;;;;;;;;;5072746;28;20183;-71
2023/09/23 18:03:22;;;;;;;2.97;2.37;;;;;;;;;;5055709;28;20676;-71
2023/09/23 18:05:50;;;;;;;5.03;2.43;;;;;;;;;;5056366;28;20637;-71
2023/09/23 18:08:17;;;;;;;3.50;2.27;;;;;;;;;;5072083;28;20209;-72
2023/09/23 18:10:44;;;;;;;5.13;3.37;;;;;;;;;;5073466;28;20181;-71
2023/09/23 18:13:11;;;;;;;6.50;3.03;;;;;;;;;;5072295;28;20222;-71
2023/09/23 18:15:38;;;;;;;14.03;2.40;;;;;;;;;;5073140;28;20235;-71
2023/09/23 18:18:05;;;;;;;22.70;3.90;;;;;;;;;;5074015;28;20190;-70
2023/09/23 18:20:32;;;;;;;4.47;2.60;;;;;;;;;;5076169;28;20210;-70
2023/09/23 18:22:59;;;;;;;3.43;2.30;;;;;;;;;;5058530;28;20236;-70
2023/09/23 18:25:26;;;;;;;4.33;2.40;;;;;;;;;;5077282;28;20264;-72
2023/09/23 18:27:53;;;;;;;5.23;3.20;;;;;;;;;;5059241;28;20229;-72
2023/09/23 18:30:38;;;;;;;3.00;2.30;;;;;;;;;;5077185;28;20489;-72
2023/09/23 18:33:05;;;;;;;5.60;2.77;;;;;;;;;;5077268;28;20182;-71
2023/09/23 18:35:32;;;;;;;4.43;2.47;;;;;;;;;;5076922;28;20515;-71
2023/09/23 18:37:59;;;;;;;2.97;2.40;;;;;;;;;;5076697;28;20265;-71
2023/09/23 18:40:25;;;;;;;4.43;2.83;;;;;;;;;;5058685;28;20194;-72
2023/09/23 18:42:54;;;;;;;5.43;2.70;;;;;;;;;;5077099;28;20288;-72
2023/09/23 18:45:24;;;;;;;4.00;2.70;;;;;;;;;;5077123;28;20174;-72
2023/09/23 18:47:50;;;;;;;7.30;3.10;;;;;;;;;;5059163;28;20236;-71
2023/09/23 18:50:33;;;;;;;4.27;3.13;;;;;;;;;;5061182;28;20553;-71
2023/09/23 18:53:00;;;;;;;5.93;2.80;;;;;;;;;;5059224;28;20179;-71
2023/09/23 18:55:27;;;;;;;4.60;3.23;;;;;;;;;;5055147;28;20191;-71
2023/09/23 18:57:57;;;;;;;5.47;3.17;;;;;;;;;;5039367;28;20630;-71
2023/09/23 19:00:24;;;;;;;4.67;3.40;;;;;;;;;;5056826;28;20513;-72
2023/09/23 19:02:50;;;;;;;4.40;3.27;;;;;;;;;;5056190;28;20585;-72
2023/09/23 19:05:17;;;;;;;5.03;3.77;;;;;;;;;;5056452;28;20507;-72
2023/09/23 19:07:45;;;;;;;4.03;3.23;;;;;;;;;;5055820;28;20640;-72
2023/09/23 19:10:12;;;;;;;6.23;4.13;;;;;;;;;;5056358;28;20213;-72
2023/09/23 19:12:40;;;;;;;8.00;3.87;;;;;;;;;;5022061;28;20195;-71
2023/09/23 19:15:07;;;;;;;5.80;3.80;;;;;;;;;;5038888;28;20269;-70
2023/09/23 19:17:35;;;;;;;4.73;3.53;;;;;;;;;;5054747;28;20183;-70
2023/09/23 19:20:05;;;;;;;6.37;3.70;;;;;;;;;;5055820;28;20204;-70
2023/09/23 19:22:32;;;;;;;6.73;4.60;;;;;;;;;;5038070;28;20187;-70
2023/09/23 19:25:16;;;;;;;4.07;3.33;;;;;;;;;;5057021;28;20151;-70
2023/09/23 19:27:45;;;;;;;8.23;3.70;;;;;;;;;;5038128;28;20581;-70
2023/09/23 19:30:15;;;;;;;6.20;4.10;;;;;;;;;;5045275;28;20282;-71
2023/09/23 19:32:42;;;;;;;6.40;3.93;;;;;;;;;;5041435;28;20186;-70
2023/09/23 19:35:10;;;;;;;8.67;4.10;;;;;;;;;;5058879;28;20209;-71
2023/09/23 19:37:37;;;;;;;6.00;3.83;;;;;;;;;;5047372;28;20186;-71
2023/09/23 19:40:06;;;;;;;6.53;4.37;;;;;;;;;;5058594;28;20185;-71